CheckWX is a tool to help pilots better visualize weather data.  It is not intended as a substitute for an official pre-flight weather briefing.

01:27:23 UTC

EHKD METAR
De Kooy Airport
Den Helder, The Netherlands
Current

32 mins ago

EHKD 150055Z AUTO 17010KT 140V200 9999 OVC120 15/14 Q1003 BLU
Observed
Oct-15 @ 00:55 UTC
Wind
  • 170° at 10 KTS
Visibility
10,000+ meters
Flight Rules
VFR
Cloud Levels
  • Overcast at 12,000' AGL
Temperature
15°C / 59°F
Dewpoint
14°C / 57°F
Humidity
94%
Altimeter
29.62" Hg
Pressure
1002.92 hPa
Previous

1 hour ago

EHKD 150025Z AUTO 15008KT 120V180 9999 OVC130/// 15/14 Q1003 BLU
Observed
Oct-15 @ 00:25 UTC
Wind
  • 150° at 8 KTS
Visibility
10,000+ meters
Flight Rules
VFR
Cloud Levels
  • Overcast at 13,000' AGL
Temperature
15°C / 59°F
Dewpoint
14°C / 57°F
Humidity
94%
Altimeter
29.62" Hg
Pressure
1002.92 hPa
Previous

2 hours ago

EHKD 142355Z AUTO 13009KT 9999 OVC120 15/14 Q1002 BLU
Observed
Oct-14 @ 23:55 UTC
Wind
  • 130° at 9 KTS
Visibility
10,000+ meters
Flight Rules
VFR
Cloud Levels
  • Overcast at 12,000' AGL
Temperature
15°C / 59°F
Dewpoint
14°C / 57°F
Humidity
94%
Altimeter
29.59" Hg
Pressure
1001.92 hPa